Time;durP1;ratioP1;P1;durP2;ratioP2;P2;SDS_P1;SDS_P2;PMS_P1;PMS_P2;Temp;Humidity;BMP_temperature;BMP_pressure;BME280_temperature;BME280_humidity;BME280_pressure;Samples;Min_cycle;Max_cycle;Signal;HPM_P1;HPM_P2
2021/07/07 00:01:32;;;;;;;5.65;1.45;;;16.00;87.20;;;;;;5013853;28;20046;-87
2021/07/07 00:03:58;;;;;;;5.60;1.52;;;16.00;86.90;;;;;;5013395;28;20224;-86
2021/07/07 00:06:24;;;;;;;7.82;1.58;;;15.90;87.40;;;;;;5014104;28;20076;-86
2021/07/07 00:08:49;;;;;;;5.03;1.25;;;15.90;87.50;;;;;;5013186;28;20052;-86
2021/07/07 00:11:15;;;;;;;5.22;1.23;;;15.90;87.10;;;;;;5014104;28;20409;-86
2021/07/07 00:13:41;;;;;;;5.60;1.42;;;15.90;87.00;;;;;;5014132;28;20056;-86
2021/07/07 00:16:06;;;;;;;5.57;1.60;;;15.80;86.40;;;;;;5013108;28;20165;-86
2021/07/07 00:18:32;;;;;;;3.63;1.42;;;15.80;86.70;;;;;;5014107;28;20050;-87
2021/07/07 00:20:58;;;;;;;5.88;1.38;;;15.80;86.10;;;;;;5013451;28;20488;-86
2021/07/07 00:23:29;;;;;;;6.15;1.50;;;15.80;86.10;;;;;;5013138;28;20045;-86
2021/07/07 00:25:55;;;;;;;5.80;1.70;;;15.70;85.80;;;;;;5012762;28;20049;-86
2021/07/07 00:28:22;;;;;;;6.10;1.50;;;15.70;85.70;;;;;;5013699;28;20053;-85
2021/07/07 00:30:49;;;;;;;3.70;1.33;;;15.70;86.90;;;;;;5012942;28;20045;-86
2021/07/07 00:33:15;;;;;;;8.40;1.50;;;15.70;87.30;;;;;;5013773;28;20045;-85
2021/07/07 00:35:41;;;;;;;5.68;1.60;;;15.60;87.20;;;;;;5013712;28;20054;-86
2021/07/07 00:38:08;;;;;;;4.75;1.50;;;15.60;87.50;;;;;;5012582;28;20054;-86
2021/07/07 00:40:34;;;;;;;6.43;1.60;;;15.60;87.30;;;;;;5013548;28;20049;-86
2021/07/07 00:43:00;;;;;;;6.82;1.60;;;15.60;87.80;;;;;;5012966;28;20046;-86
2021/07/07 00:45:26;;;;;;;5.15;1.65;;;15.60;88.10;;;;;;5012571;28;20057;-86
2021/07/07 00:47:51;;;;;;;4.88;1.73;;;15.60;88.20;;;;;;5013597;28;20097;-87
2021/07/07 00:50:17;;;;;;;7.30;1.65;;;15.50;88.10;;;;;;5013804;28;20046;-85
2021/07/07 00:52:43;;;;;;;8.30;1.70;;;15.50;87.60;;;;;;5012479;28;20111;-86
2021/07/07 00:55:12;;;;;;;4.85;1.92;;;15.50;86.90;;;;;;5013374;28;20050;-86
2021/07/07 00:57:41;;;;;;;5.13;1.40;;;15.50;86.80;;;;;;5012840;28;20049;-86
2021/07/07 01:00:09;;;;;;;5.78;1.50;;;15.40;87.20;;;;;;5012404;28;20046;-86
2021/07/07 01:02:42;;;;;;;5.10;1.80;;;15.40;87.30;;;;;;5013269;28;20136;-85
2021/07/07 01:05:10;;;;;;;5.47;1.70;;;15.40;87.90;;;;;;5011669;28;20176;-86
2021/07/07 01:07:36;;;;;;;4.05;1.33;;;15.40;87.90;;;;;;5013331;28;20049;-85
2021/07/07 01:10:04;;;;;;;4.78;1.50;;;15.40;87.90;;;;;;5012882;28;20058;-85
2021/07/07 01:12:31;;;;;;;4.05;1.65;;;15.40;88.10;;;;;;5012627;28;20108;-85
2021/07/07 01:15:00;;;;;;;5.22;1.50;;;15.30;88.30;;;;;;5013114;28;20072;-86
2021/07/07 01:17:29;;;;;;;3.45;1.23;;;15.30;87.80;;;;;;5013188;28;20085;-85
2021/07/07 01:19:56;;;;;;;4.38;1.60;;;15.30;87.90;;;;;;5012134;28;20054;-85
2021/07/07 01:22:21;;;;;;;4.70;1.60;;;15.30;88.30;;;;;;5012811;28;20440;-85
2021/07/07 01:24:47;;;;;;;4.68;1.60;;;15.30;88.30;;;;;;5012226;28;20100;-85
2021/07/07 01:27:13;;;;;;;6.80;1.83;;;15.30;88.30;;;;;;5012176;28;20493;-85
2021/07/07 01:29:39;;;;;;;5.10;1.88;;;15.20;87.60;;;;;;5013176;28;20100;-85
2021/07/07 01:32:05;;;;;;;4.65;2.00;;;15.20;88.00;;;;;;5012938;28;20042;-86
2021/07/07 01:34:31;;;;;;;5.57;1.50;;;15.20;87.40;;;;;;5012334;28;20058;-86
2021/07/07 01:36:56;;;;;;;4.07;1.58;;;15.20;87.90;;;;;;5012929;28;20045;-86
2021/07/07 01:39:22;;;;;;;5.10;1.50;;;15.10;88.30;;;;;;5012815;28;20046;-86
2021/07/07 01:41:48;;;;;;;4.40;1.40;;;15.10;87.60;;;;;;5011970;28;20058;-86
2021/07/07 01:44:13;;;;;;;5.35;1.70;;;15.10;87.10;;;;;;5012545;28;20462;-86
2021/07/07 01:46:39;;;;;;;5.47;1.55;;;15.10;87.50;;;;;;5012761;28;20099;-86
2021/07/07 01:49:05;;;;;;;7.72;2.20;;;15.10;87.20;;;;;;5011607;28;20045;-86
2021/07/07 01:51:31;;;;;;;5.35;1.60;;;15.00;87.00;;;;;;5012765;28;20053;-85
2021/07/07 01:53:57;;;;;;;5.00;1.63;;;15.00;87.60;;;;;;5012214;28;20508;-85
2021/07/07 01:56:24;;;;;;;5.32;1.70;;;15.00;88.10;;;;;;5011921;28;20505;-86
2021/07/07 01:58:49;;;;;;;4.53;1.52;;;15.00;88.80;;;;;;5012558;28;20054;-87
2021/07/07 02:01:15;;;;;;;4.90;1.63;;;14.90;88.20;;;;;;5012680;28;20053;-86
2021/07/07 02:03:41;;;;;;;5.68;1.80;;;15.00;87.90;;;;;;5012468;28;20460;-85
2021/07/07 02:06:06;;;;;;;5.47;1.73;;;14.90;88.10;;;;;;5016140;28;20601;-86
2021/07/07 02:08:33;;;;;;;4.97;1.80;;;14.90;88.10;;;;;;5015651;28;20054;-86
2021/07/07 02:10:59;;;;;;;6.03;1.98;;;14.90;88.40;;;;;;5016149;28;20046;-86
2021/07/07 02:13:24;;;;;;;5.80;1.85;;;14.90;87.90;;;;;;5016602;28;20144;-86
2021/07/07 02:15:51;;;;;;;4.15;1.70;;;14.90;88.10;;;;;;5014882;28;20046;-86
2021/07/07 02:18:16;;;;;;;6.43;1.70;;;14.90;87.80;;;;;;5016281;28;20129;-86
2021/07/07 02:20:43;;;;;;;5.03;1.90;;;14.90;88.00;;;;;;5016217;28;20060;-85
2021/07/07 02:23:10;;;;;;;4.78;1.50;;;14.90;88.30;;;;;;5014938;28;20045;-86
2021/07/07 02:25:38;;;;;;;6.18;2.20;;;14.90;88.20;;;;;;5015922;28;20136;-86
2021/07/07 02:28:05;;;;;;;4.72;1.85;;;14.80;87.90;;;;;;5015969;28;20485;-85
2021/07/07 02:30:33;;;;;;;6.85;2.10;;;14.80;88.10;;;;;;5015418;28;20073;-85
2021/07/07 02:33:00;;;;;;;6.68;1.60;;;14.80;88.00;;;;;;5015934;28;20075;-86
2021/07/07 02:35:28;;;;;;;4.65;1.70;;;14.80;87.70;;;;;;5015953;28;20481;-85
2021/07/07 02:37:55;;;;;;;4.13;1.73;;;14.80;87.50;;;;;;5014962;28;20056;-86
2021/07/07 02:40:23;;;;;;;4.35;1.63;;;14.80;87.80;;;;;;5015999;28;20057;-86
2021/07/07 02:42:50;;;;;;;4.85;1.55;;;14.70;87.50;;;;;;5015148;28;20448;-85
2021/07/07 02:45:17;;;;;;;8.10;2.03;;;14.70;87.70;;;;;;5015145;28;20073;-85
2021/07/07 02:47:44;;;;;;;5.50;1.90;;;14.70;88.10;;;;;;5015572;28;20069;-85
2021/07/07 02:50:12;;;;;;;6.07;1.80;;;14.70;88.20;;;;;;5015484;28;20141;-85
2021/07/07 02:52:39;;;;;;;3.90;1.48;;;14.70;87.80;;;;;;4997560;28;20520;-85
2021/07/07 02:55:10;;;;;;;7.75;1.80;;;14.70;87.70;;;;;;5015286;28;20045;-85
2021/07/07 03:00:21;;;;;;;7.63;2.00;;;14.60;87.80;;;;;;5015456;28;20096;-86
2021/07/07 03:02:47;;;;;;;7.15;2.40;;;14.60;88.00;;;;;;5014685;28;20056;-85
2021/07/07 03:05:13;;;;;;;4.20;1.85;;;14.60;88.20;;;;;;5014692;28;20045;-85
2021/07/07 03:07:39;;;;;;;9.32;2.42;;;14.60;88.60;;;;;;5015361;28;20053;-85
2021/07/07 03:10:07;;;;;;;6.30;1.95;;;14.60;89.10;;;;;;5015196;28;20095;-84
2021/07/07 03:12:33;;;;;;;4.78;1.48;;;14.60;88.70;;;;;;5014416;28;20046;-85
2021/07/07 03:14:58;;;;;;;6.78;1.83;;;14.60;87.90;;;;;;5014733;28;20057;-85
2021/07/07 03:17:24;;;;;;;5.88;1.90;;;14.50;88.50;;;;;;5014835;28;20061;-85
2021/07/07 03:19:50;;;;;;;6.10;1.70;;;14.50;88.90;;;;;;5014228;28;20115;-85
2021/07/07 03:22:17;;;;;;;6.97;2.10;;;14.50;88.50;;;;;;5014785;28;20401;-85
2021/07/07 03:24:43;;;;;;;8.60;2.10;;;14.50;88.60;;;;;;5014966;28;20094;-85
2021/07/07 03:27:09;;;;;;;5.30;1.90;;;14.50;88.90;;;;;;5014095;28;20061;-85
2021/07/07 03:29:34;;;;;;;4.57;1.60;;;14.50;88.80;;;;;;5014795;28;20049;-86
2021/07/07 03:32:00;;;;;;;5.45;1.90;;;14.50;89.00;;;;;;5014398;28;20104;-85
2021/07/07 03:34:26;;;;;;;5.80;1.60;;;14.50;89.10;;;;;;5014399;28;20046;-86
2021/07/07 03:36:51;;;;;;;6.93;2.00;;;14.50;89.30;;;;;;5014460;28;20054;-85
2021/07/07 03:39:19;;;;;;;5.18;1.90;;;14.50;89.60;;;;;;5014814;28;20123;-85
2021/07/07 03:41:45;;;;;;;7.18;2.10;;;14.50;90.20;;;;;;5013503;28;20485;-85
2021/07/07 03:44:11;;;;;;;5.45;1.85;;;14.50;89.80;;;;;;5014556;28;20442;-85
2021/07/07 03:46:36;;;;;;;6.65;1.98;;;14.50;89.70;;;;;;5014375;28;20042;-85
2021/07/07 03:49:03;;;;;;;5.57;1.55;;;14.40;90.20;;;;;;5013268;28;20054;-84
2021/07/07 03:51:28;;;;;;;6.57;1.70;;;14.40;89.90;;;;;;5014448;28;20046;-86
2021/07/07 03:53:54;;;;;;;7.15;1.88;;;14.40;89.40;;;;;;5013366;28;20049;-85
2021/07/07 03:56:19;;;;;;;4.93;1.90;;;14.50;89.40;;;;;;5014015;28;20046;-86
2021/07/07 03:58:45;;;;;;;5.93;2.00;;;14.40;88.80;;;;;;5013851;28;20046;-85
2021/07/07 04:01:12;;;;;;;5.90;2.03;;;14.40;89.00;;;;;;5013224;28;20053;-85
2021/07/07 04:03:39;;;;;;;5.30;1.50;;;14.40;89.30;;;;;;5014616;28;20061;-85
2021/07/07 04:06:06;;;;;;;9.60;2.38;;;14.40;89.40;;;;;;5014053;28;20104;-85
2021/07/07 04:08:32;;;;;;;4.82;1.70;;;14.40;89.30;;;;;;5013633;28;20081;-86
2021/07/07 04:10:58;;;;;;;4.63;1.98;;;14.40;89.00;;;;;;5013880;28;20052;-85
2021/07/07 04:13:27;;;;;;;4.03;1.67;;;14.40;89.50;;;;;;5014139;28;20046;-85
2021/07/07 04:15:53;;;;;;;6.10;1.88;;;14.40;89.70;;;;;;5013042;28;20046;-85
2021/07/07 04:18:19;;;;;;;6.63;1.55;;;14.40;89.20;;;;;;5013974;28;20133;-85
2021/07/07 04:20:44;;;;;;;4.95;1.80;;;14.40;88.90;;;;;;5013198;28;20046;-85
2021/07/07 04:23:11;;;;;;;5.43;1.90;;;14.40;88.50;;;;;;4993690;28;20144;-85
2021/07/07 04:25:37;;;;;;;6.95;2.33;;;14.40;88.90;;;;;;4995279;28;20062;-85
2021/07/07 04:28:03;;;;;;;10.52;2.40;;;14.40;89.40;;;;;;5012224;28;20054;-85
2021/07/07 04:30:29;;;;;;;7.85;2.28;;;14.40;89.30;;;;;;5013447;28;20134;-86
2021/07/07 04:32:55;;;;;;;5.60;1.88;;;14.40;89.60;;;;;;5019374;28;20073;-85
2021/07/07 04:35:20;;;;;;;8.18;2.08;;;14.40;89.90;;;;;;5012865;28;20050;-86
2021/07/07 04:37:48;;;;;;;5.90;1.85;;;14.40;89.90;;;;;;5012235;28;20049;-86
2021/07/07 04:40:15;;;;;;;6.75;1.85;;;14.40;89.90;;;;;;5013130;28;20558;-85
2021/07/07 04:42:40;;;;;;;4.85;2.17;;;14.40;89.70;;;;;;5013415;28;20049;-85
2021/07/07 04:45:09;;;;;;;6.68;1.95;;;14.40;89.40;;;;;;5012099;28;20132;-84
2021/07/07 04:47:35;;;;;;;8.25;2.55;;;14.40;90.00;;;;;;5013484;28;20129;-86
2021/07/07 04:50:05;;;;;;;6.32;1.80;;;14.50;90.20;;;;;;5013106;28;20116;-86
2021/07/07 04:52:30;;;;;;;4.95;1.77;;;14.50;90.10;;;;;;5013012;28;20050;-85
2021/07/07 04:54:56;;;;;;;7.55;2.20;;;14.50;90.00;;;;;;5011577;28;20061;-84
2021/07/07 04:57:22;;;;;;;5.90;2.25;;;14.50;90.10;;;;;;5011869;28;20050;-85
2021/07/07 04:59:47;;;;;;;6.95;2.20;;;14.50;90.30;;;;;;5012570;28;20057;-85
2021/07/07 05:02:13;;;;;;;8.02;2.30;;;14.50;90.30;;;;;;5012501;28;20042;-86
2021/07/07 05:04:39;;;;;;;7.10;2.33;;;14.60;90.50;;;;;;5012562;28;20077;-85
2021/07/07 05:07:04;;;;;;;7.68;2.30;;;14.60;90.30;;;;;;5012736;28;20556;-86
2021/07/07 05:09:30;;;;;;;7.13;2.50;;;14.60;90.30;;;;;;5013141;28;20064;-86
2021/07/07 05:11:56;;;;;;;7.15;2.78;;;14.60;90.40;;;;;;5012152;28;20469;-87
2021/07/07 05:14:21;;;;;;;9.52;2.58;;;14.70;90.60;;;;;;5015019;28;20045;-88
2021/07/07 05:16:47;;;;;;;7.88;2.65;;;14.70;90.80;;;;;;5012677;28;20053;-85
2021/07/07 05:19:13;;;;;;;7.05;2.10;;;14.70;90.80;;;;;;5024224;28;20049;-85
2021/07/07 05:21:39;;;;;;;8.02;2.58;;;14.70;90.70;;;;;;5022613;28;20410;-86
2021/07/07 05:24:05;;;;;;;8.00;2.60;;;14.70;90.80;;;;;;5012636;28;20076;-86
2021/07/07 05:26:31;;;;;;;7.55;2.28;;;14.80;90.80;;;;;;5011756;28;20153;-85
2021/07/07 05:28:57;;;;;;;8.60;2.22;;;14.80;90.90;;;;;;5018755;28;20485;-86
2021/07/07 05:31:22;;;;;;;7.47;2.65;;;14.80;91.00;;;;;;5013965;28;20046;-82
2021/07/07 05:33:48;;;;;;;6.32;2.40;;;14.90;91.00;;;;;;5011590;28;20125;-83
2021/07/07 05:36:14;;;;;;;8.95;2.90;;;14.90;90.90;;;;;;5011679;28;20049;-84
2021/07/07 05:38:40;;;;;;;6.55;2.22;;;15.00;90.90;;;;;;5012621;28;20450;-82
2021/07/07 05:41:05;;;;;;;8.27;2.55;;;15.00;90.80;;;;;;5015006;28;20042;-84
2021/07/07 05:43:31;;;;;;;6.53;2.60;;;15.10;90.90;;;;;;5016979;28;20107;-83
2021/07/07 05:46:00;;;;;;;9.75;3.03;;;15.10;91.00;;;;;;5016332;28;20057;-85
2021/07/07 05:48:27;;;;;;;8.02;2.67;;;15.20;91.10;;;;;;5014784;28;20516;-84
2021/07/07 05:50:53;;;;;;;5.45;2.10;;;15.20;91.20;;;;;;5015954;28;20050;-86
2021/07/07 05:53:19;;;;;;;7.53;2.20;;;15.30;90.90;;;;;;5016121;28;20506;-84
2021/07/07 05:55:45;;;;;;;6.18;2.20;;;15.30;90.70;;;;;;5015547;28;20184;-85
2021/07/07 05:58:11;;;;;;;8.32;2.50;;;15.40;90.70;;;;;;5004121;28;20142;-83
2021/07/07 06:00:37;;;;;;;8.10;2.20;;;15.40;90.80;;;;;;5013295;28;20125;-86
2021/07/07 06:03:03;;;;;;;6.13;2.10;;;15.50;90.60;;;;;;5015409;28;20546;-83
2021/07/07 06:05:30;;;;;;;7.82;2.22;;;15.50;90.60;;;;;;5016660;28;20050;-84
2021/07/07 06:07:56;;;;;;;9.00;2.42;;;15.60;90.70;;;;;;5014717;28;20046;-83
2021/07/07 06:10:23;;;;;;;4.85;2.08;;;15.60;90.80;;;;;;5016287;28;20049;-84
2021/07/07 06:12:53;;;;;;;7.20;2.10;;;15.70;90.70;;;;;;5015415;28;20394;-84
2021/07/07 06:15:18;;;;;;;9.05;2.15;;;15.80;90.50;;;;;;5013217;28;20188;-85
2021/07/07 06:17:44;;;;;;;9.43;2.42;;;15.90;90.40;;;;;;5012541;28;20132;-84
2021/07/07 06:20:13;;;;;;;8.10;2.17;;;15.90;90.50;;;;;;5014979;28;20034;-84
2021/07/07 06:22:40;;;;;;;8.07;2.17;;;16.00;90.50;;;;;;5015207;28;20140;-84
2021/07/07 06:25:07;;;;;;;8.77;2.20;;;16.00;90.50;;;;;;5021190;28;20125;-85
2021/07/07 06:27:36;;;;;;;5.50;2.10;;;16.00;90.50;;;;;;5021402;28;20471;-84
2021/07/07 06:30:13;;;;;;;7.82;2.38;;;16.10;90.50;;;;;;5014343;28;20077;-84
2021/07/07 06:32:39;;;;;;;6.85;2.17;;;16.10;90.40;;;;;;4996079;28;20047;-85
2021/07/07 06:35:05;;;;;;;7.88;2.20;;;16.10;90.30;;;;;;5007524;28;20077;-82
2021/07/07 06:37:31;;;;;;;5.25;2.20;;;16.20;90.30;;;;;;5014436;28;20128;-83
2021/07/07 06:39:57;;;;;;;5.40;2.20;;;16.20;90.10;;;;;;5014932;28;20458;-83
2021/07/07 06:42:22;;;;;;;8.80;2.38;;;16.30;90.30;;;;;;5015507;28;20042;-82
2021/07/07 06:44:48;;;;;;;10.57;2.60;;;16.30;90.40;;;;;;5014639;28;20107;-83
2021/07/07 06:47:14;;;;;;;7.95;2.38;;;16.30;90.50;;;;;;5015377;28;20477;-82
2021/07/07 06:49:40;;;;;;;6.00;2.00;;;16.40;90.50;;;;;;5011458;28;20058;-83
2021/07/07 06:52:06;;;;;;;7.47;2.40;;;16.50;90.30;;;;;;5016060;28;20045;-82
2021/07/07 06:54:32;;;;;;;7.55;2.08;;;16.50;90.30;;;;;;5016109;28;20394;-82
2021/07/07 06:56:57;;;;;;;8.10;2.40;;;16.60;90.30;;;;;;5025856;28;20045;-83
2021/07/07 06:59:26;;;;;;;11.75;2.50;;;16.60;90.30;;;;;;5017140;28;20073;-83
2021/07/07 07:01:52;;;;;;;7.20;2.70;;;16.70;90.30;;;;;;5019325;28;20054;-83
2021/07/07 07:04:17;;;;;;;7.35;2.65;;;16.70;90.40;;;;;;5021865;28;20061;-82
2021/07/07 07:06:43;;;;;;;8.98;2.40;;;16.70;90.40;;;;;;5014830;28;20141;-83
2021/07/07 07:09:12;;;;;;;9.18;2.47;;;16.80;90.20;;;;;;5014743;28;20052;-82
2021/07/07 07:11:39;;;;;;;4.45;1.98;;;16.90;90.10;;;;;;5020357;28;20408;-83
2021/07/07 07:14:05;;;;;;;10.23;3.17;;;16.90;89.90;;;;;;5015870;28;20497;-83
2021/07/07 07:16:31;;;;;;;11.60;3.30;;;17.00;90.10;;;;;;5022708;28;20793;-83
2021/07/07 07:18:56;;;;;;;10.02;2.83;;;17.00;90.00;;;;;;5021493;28;20050;-82
2021/07/07 07:21:22;;;;;;;10.90;3.15;;;17.10;90.00;;;;;;5014994;28;20100;-83
2021/07/07 07:23:48;;;;;;;8.48;2.58;;;17.10;90.00;;;;;;5014889;28;20081;-82
2021/07/07 07:26:14;;;;;;;6.75;2.67;;;17.20;90.00;;;;;;5014731;28;20093;-83
2021/07/07 07:28:40;;;;;;;7.90;2.90;;;17.30;90.00;;;;;;5013853;28;20058;-84
2021/07/07 07:31:06;;;;;;;9.27;2.72;;;17.30;90.00;;;;;;5014012;28;20046;-82
2021/07/07 07:33:32;;;;;;;8.43;3.17;;;17.40;89.70;;;;;;5012033;28;20064;-83
2021/07/07 07:35:57;;;;;;;9.68;2.55;;;17.50;89.70;;;;;;5012846;28;20533;-84
2021/07/07 07:38:27;;;;;;;9.73;2.83;;;17.50;89.80;;;;;;5014718;28;20120;-82
2021/07/07 07:40:54;;;;;;;10.40;2.70;;;17.60;89.50;;;;;;5002658;28;20065;-82
2021/07/07 07:43:21;;;;;;;7.82;2.60;;;17.70;89.00;;;;;;5024485;28;20103;-82
2021/07/07 07:45:50;;;;;;;9.43;2.35;;;17.80;88.70;;;;;;5015565;28;20066;-82
2021/07/07 07:48:16;;;;;;;10.68;2.78;;;17.80;88.40;;;;;;5021980;28;20072;-83
2021/07/07 07:50:42;;;;;;;8.73;2.88;;;17.90;88.30;;;;;;5015331;28;20058;-83
2021/07/07 07:53:08;;;;;;;9.63;2.90;;;18.00;87.80;;;;;;5012966;28;20107;-83
2021/07/07 07:55:33;;;;;;;8.13;2.63;;;18.00;87.50;;;;;;5016577;28;20508;-83
2021/07/07 07:57:59;;;;;;;10.02;2.67;;;18.10;87.70;;;;;;5016562;28;20137;-83
2021/07/07 08:00:26;;;;;;;6.78;2.33;;;18.20;87.70;;;;;;5012161;28;20806;-81
2021/07/07 08:02:52;;;;;;;10.02;2.13;;;18.20;87.00;;;;;;5012444;28;20065;-82
2021/07/07 08:05:19;;;;;;;9.30;2.60;;;18.20;86.60;;;;;;5014161;28;20401;-83
2021/07/07 08:07:45;;;;;;;9.80;2.35;;;18.30;86.40;;;;;;5012455;28;20054;-83
2021/07/07 08:10:14;;;;;;;8.88;2.40;;;18.30;86.20;;;;;;5013005;28;20046;-83
2021/07/07 08:12:48;;;;;;;7.07;2.38;;;18.40;86.20;;;;;;5012547;28;20053;-82
2021/07/07 08:15:14;;;;;;;9.57;2.38;;;18.40;86.30;;;;;;5012218;28;20069;-82
2021/07/07 08:17:40;;;;;;;9.88;2.20;;;18.40;86.00;;;;;;5013878;28;20490;-82
2021/07/07 08:20:08;;;;;;;11.05;2.17;;;18.50;86.00;;;;;;5013175;28;20401;-83
2021/07/07 08:22:34;;;;;;;8.52;2.17;;;18.50;85.80;;;;;;4997307;28;20046;-83
2021/07/07 08:25:00;;;;;;;9.32;2.53;;;18.60;85.90;;;;;;5013684;28;20050;-83
2021/07/07 08:27:26;;;;;;;7.45;2.03;;;18.60;85.60;;;;;;5013763;28;20057;-83
2021/07/07 08:29:52;;;;;;;8.07;1.80;;;18.70;85.20;;;;;;5012987;28;20058;-82
2021/07/07 08:32:17;;;;;;;8.18;1.90;;;18.70;85.20;;;;;;5012143;28;20065;-82
2021/07/07 08:34:43;;;;;;;8.20;1.92;;;18.80;84.90;;;;;;5013329;28;20112;-83
2021/07/07 08:37:12;;;;;;;8.07;1.90;;;18.80;84.30;;;;;;5011284;28;20137;-84
2021/07/07 08:39:38;;;;;;;8.93;2.08;;;18.90;83.90;;;;;;5018517;28;20056;-82
2021/07/07 08:42:04;;;;;;;9.00;2.10;;;18.90;83.90;;;;;;5016278;28;20459;-83
2021/07/07 08:44:30;;;;;;;6.18;1.90;;;19.00;83.70;;;;;;5014669;28;20382;-84
2021/07/07 08:46:55;;;;;;;10.13;2.30;;;19.00;84.60;;;;;;5013191;28;20073;-84
2021/07/07 08:49:23;;;;;;;7.05;1.80;;;19.10;84.30;;;;;;5011360;28;20053;-84
2021/07/07 08:51:50;;;;;;;8.85;2.08;;;19.20;84.40;;;;;;5018028;28;20401;-83
2021/07/07 08:54:18;;;;;;;7.30;1.83;;;19.30;83.80;;;;;;5015573;28;20549;-84
2021/07/07 08:56:46;;;;;;;9.75;2.10;;;19.40;83.80;;;;;;5011651;28;20072;-87
2021/07/07 08:59:14;;;;;;;11.25;2.40;;;19.50;83.60;;;;;;5013360;28;20042;-86
2021/07/07 09:02:03;;;;;;;9.07;2.47;;;19.60;83.10;;;;;;5013301;28;20046;-84
2021/07/07 09:04:46;;;;;;;7.93;2.45;;;19.70;82.30;;;;;;4992766;28;20395;-84
2021/07/07 09:07:23;;;;;;;6.82;2.35;;;19.80;82.20;;;;;;4993551;28;20486;-84
2021/07/07 09:09:51;;;;;;;9.40;2.30;;;19.90;81.90;;;;;;5005315;28;20045;-84
2021/07/07 09:12:37;;;;;;;10.85;2.70;;;20.00;81.90;;;;;;4994772;28;20050;-84
2021/07/07 09:15:23;;;;;;;9.35;2.72;;;20.10;81.90;;;;;;5012176;28;20050;-85
2021/07/07 09:17:56;;;;;;;9.10;2.60;;;20.20;81.10;;;;;;5011419;28;20042;-83
2021/07/07 09:20:25;;;;;;;10.82;2.58;;;20.30;80.80;;;;;;5028688;28;20152;-85
2021/07/07 09:23:12;;;;;;;10.38;2.78;;;20.40;80.50;;;;;;5019966;28;20061;-84
2021/07/07 09:25:49;;;;;;;7.65;2.33;;;20.50;79.90;;;;;;5011972;28;20072;-84
2021/07/07 09:28:21;;;;;;;7.75;2.60;;;20.60;80.60;;;;;;5011301;28;20875;-84
2021/07/07 09:30:49;;;;;;;9.45;2.40;;;20.70;80.00;;;;;;5012497;28;20050;-84
2021/07/07 09:33:39;;;;;;;10.82;2.55;;;20.80;80.00;;;;;;4997069;28;20089;-85
2021/07/07 09:36:25;;;;;;;9.77;2.80;;;20.90;79.00;;;;;;4993935;28;20409;-88
2021/07/07 09:39:15;;;;;;;9.25;1.95;;;20.90;79.30;;;;;;4997576;28;20053;-89
2021/07/07 09:41:42;;;;;;;10.80;2.08;;;21.00;77.80;;;;;;5012609;28;20050;-88
2021/07/07 09:44:35;;;;;;;9.02;2.58;;;21.20;76.80;;;;;;5011670;28;20041;-88
2021/07/07 09:47:05;;;;;;;7.90;2.08;;;21.20;77.40;;;;;;5012011;28;20049;-86
2021/07/07 09:49:35;;;;;;;9.25;2.47;;;21.30;77.50;;;;;;5012423;28;20050;-89
2021/07/07 09:52:25;;;;;;;9.55;2.47;;;21.40;76.90;;;;;;4997817;28;20058;-87
2021/07/07 09:54:51;;;;;;;8.88;2.47;;;21.50;77.00;;;;;;5009398;28;20058;-86
2021/07/07 09:57:19;;;;;;;13.15;2.60;;;21.50;77.40;;;;;;5011643;28;20482;-86
2021/07/07 09:59:45;;;;;;;12.13;2.60;;;21.60;77.40;;;;;;5011587;28;20053;-87
2021/07/07 10:02:11;;;;;;;9.00;2.05;;;21.70;77.60;;;;;;5012425;28;20386;-86
2021/07/07 10:04:58;;;;;;;10.75;2.65;;;21.80;77.20;;;;;;4997661;28;20140;-87
2021/07/07 10:07:45;;;;;;;13.23;2.50;;;21.90;76.10;;;;;;4977746;28;20042;-87
2021/07/07 10:10:31;;;;;;;8.18;2.50;;;21.90;76.30;;;;;;5010983;28;20064;-87
2021/07/07 10:12:57;;;;;;;10.55;2.10;;;22.00;76.10;;;;;;5011931;28;20057;-87
2021/07/07 10:15:24;;;;;;;8.10;2.00;;;22.10;75.60;;;;;;5011761;28;20506;-87
2021/07/07 10:17:50;;;;;;;8.02;2.10;;;22.10;74.70;;;;;;5011870;28;20056;-87
2021/07/07 10:20:16;;;;;;;12.40;2.20;;;22.10;74.70;;;;;;5012589;28;20057;-88
2021/07/07 10:22:43;;;;;;;10.02;2.20;;;22.10;74.60;;;;;;5011521;28;20812;-86
2021/07/07 10:25:14;;;;;;;8.68;1.90;;;22.10;74.00;;;;;;5014217;28;20050;-86
2021/07/07 10:27:42;;;;;;;8.02;2.30;;;22.20;73.20;;;;;;5016184;28;20129;-87
2021/07/07 10:30:08;;;;;;;9.90;1.75;;;22.20;72.30;;;;;;5015803;28;20081;-85
2021/07/07 10:32:34;;;;;;;6.80;1.88;;;22.10;72.00;;;;;;5015909;28;20554;-86
2021/07/07 10:35:09;;;;;;;7.40;1.80;;;22.20;72.50;;;;;;5014401;28;20141;-86
2021/07/07 10:37:36;;;;;;;7.07;2.00;;;22.10;71.40;;;;;;5016096;28;20054;-85
2021/07/07 10:40:28;;;;;;;7.80;2.00;;;22.20;72.40;;;;;;5016185;28;20461;-85
2021/07/07 10:42:54;;;;;;;6.25;1.73;;;22.10;71.10;;;;;;5015557;28;20061;-86
2021/07/07 10:45:41;;;;;;;6.25;1.50;;;22.10;70.80;;;;;;5016040;28;20111;-85
2021/07/07 10:48:31;;;;;;;8.63;1.80;;;22.10;70.50;;;;;;5015945;28;20078;-85
2021/07/07 10:51:00;;;;;;;12.07;2.40;;;22.20;70.00;;;;;;5015295;28;20062;-86
2021/07/07 10:53:33;;;;;;;11.98;2.20;;;22.20;70.70;;;;;;5015862;28;20555;-85
2021/07/07 10:56:00;;;;;;;11.63;2.17;;;22.30;70.70;;;;;;5015495;28;20045;-85
2021/07/07 10:58:34;;;;;;;10.32;2.10;;;22.30;71.00;;;;;;5016292;28;20085;-85
2021/07/07 11:01:01;;;;;;;8.57;1.90;;;22.40;71.00;;;;;;5016105;28;20493;-84
2021/07/07 11:03:32;;;;;;;6.32;1.63;;;22.50;71.10;;;;;;5015049;28;20151;-86
2021/07/07 11:06:01;;;;;;;7.78;1.88;;;22.50;70.20;;;;;;5015171;28;20049;-86
2021/07/07 11:08:29;;;;;;;9.60;2.08;;;22.50;70.10;;;;;;5015621;28;20046;-86
2021/07/07 11:10:59;;;;;;;10.57;2.00;;;22.50;70.40;;;;;;5013826;28;20100;-86
2021/07/07 11:13:27;;;;;;;7.63;1.77;;;22.60;70.90;;;;;;5013847;28;20046;-86
2021/07/07 11:15:54;;;;;;;7.15;1.77;;;22.50;71.90;;;;;;5013081;28;20104;-86
2021/07/07 11:18:22;;;;;;;7.47;1.90;;;22.50;71.40;;;;;;5012746;28;20109;-84
2021/07/07 11:21:04;;;;;;;9.27;2.22;;;22.50;73.20;;;;;;5013298;28;20061;-86
2021/07/07 11:23:31;;;;;;;7.97;2.10;;;22.50;73.50;;;;;;5014636;28;20147;-83
2021/07/07 11:25:57;;;;;;;12.18;3.10;;;22.50;75.60;;;;;;5013602;28;20481;-82
2021/07/07 11:28:23;;;;;;;11.07;2.40;;;22.60;76.00;;;;;;5014399;28;20096;-84
2021/07/07 11:30:48;;;;;;;8.75;2.30;;;22.50;77.00;;;;;;5014336;28;20472;-87
2021/07/07 11:33:14;;;;;;;9.38;2.60;;;22.40;78.10;;;;;;5014546;28;20050;-88
2021/07/07 11:35:42;;;;;;;9.60;2.50;;;22.50;78.80;;;;;;5015652;28;20109;-89
2021/07/07 11:38:14;;;;;;;6.97;2.60;;;22.50;79.00;;;;;;5015260;28;20073;-86
2021/07/07 11:40:41;;;;;;;;;;;22.40;78.90;;;;;;5016203;28;20054;-87
2021/07/07 11:43:13;;;;;;;9.13;3.03;;;22.30;78.80;;;;;;5016082;28;19921;-88
2021/07/07 11:45:55;;;;;;;7.47;2.40;;;22.40;80.60;;;;;;5016268;28;20489;-90
2021/07/07 11:48:34;;;;;;;9.80;2.30;;;22.40;81.00;;;;;;5017468;28;20046;-90
2021/07/07 11:51:03;;;;;;;8.50;2.63;;;22.40;81.40;;;;;;5014710;28;20049;-92
2021/07/07 11:53:42;;;;;;;8.35;2.30;;;22.40;81.60;;;;;;5016386;28;20103;-91
2021/07/07 11:56:14;;;;;;;9.65;2.45;;;22.50;80.80;;;;;;5016661;28;20070;-88
2021/07/07 11:58:45;;;;;;;9.55;2.50;;;22.50;81.00;;;;;;5015589;28;20061;-91
2021/07/07 12:01:26;;;;;;;6.47;2.05;;;22.50;79.80;;;;;;5018376;28;20259;-96
2021/07/07 12:04:03;;;;;;;9.45;2.50;;;22.50;80.20;;;;;;5010236;28;20057;-94
2021/07/07 12:06:46;;;;;;;8.40;2.40;;;22.50;79.10;;;;;;5026071;28;20081;-95
2021/07/07 12:09:20;;;;;;;6.22;1.98;;;22.50;78.80;;;;;;5037438;28;20053;-95
2021/07/07 12:11:57;;;;;;;12.13;2.50;;;22.50;79.30;;;;;;5042962;28;20132;-96
2021/07/07 12:14:24;;;;;;;7.53;2.28;;;22.50;78.80;;;;;;5041587;28;20053;-96
2021/07/07 12:16:50;;;;;;;8.38;2.38;;;22.50;78.40;;;;;;5001481;28;20117;-93
2021/07/07 12:19:17;;;;;;;6.60;2.20;;;22.40;78.50;;;;;;5017617;28;20058;-94
2021/07/07 12:21:45;;;;;;;9.82;2.30;;;22.30;80.00;;;;;;5019472;28;20050;-95
2021/07/07 12:24:19;;;;;;;6.97;2.30;;;22.30;80.50;;;;;;5019543;28;20128;-92
2021/07/07 12:26:51;;;;;;;6.03;2.40;;;22.30;80.00;;;;;;5018078;28;20095;-96
2021/07/07 12:29:24;;;;;;;7.70;2.38;;;22.30;80.80;;;;;;5016526;28;20046;-95
2021/07/07 12:31:51;;;;;;;;;;;22.30;80.50;;;;;;5020621;28;20050;-95
2021/07/07 12:34:24;;;;;;;5.97;2.05;;;22.20;79.90;;;;;;5018805;28;20279;-95
2021/07/07 12:36:53;;;;;;;9.77;2.50;;;22.30;82.30;;;;;;5019566;28;20050;-94
2021/07/07 12:39:22;;;;;;;8.27;2.42;;;22.30;82.00;;;;;;5019527;28;20037;-90
2021/07/07 12:41:54;;;;;;;7.22;2.22;;;22.30;80.80;;;;;;4999963;28;20498;-96
2021/07/07 12:44:24;;;;;;;9.50;2.53;;;22.30;81.30;;;;;;5017606;28;20060;-96
2021/07/07 12:47:02;;;;;;;6.75;2.35;;;22.20;80.40;;;;;;5017099;28;20068;-94
2021/07/07 12:49:40;;;;;;;7.18;2.05;;;22.30;80.30;;;;;;5013627;28;20485;-94
2021/07/07 12:52:35;;;;;;;6.28;2.08;;;22.20;80.30;;;;;;5017391;28;20050;-95
2021/07/07 12:55:12;;;;;;;6.57;2.20;;;22.20;79.10;;;;;;5015030;28;20053;-95